Time;durP1;ratioP1;P1;durP2;ratioP2;P2;SDS_P1;SDS_P2;PMS_P1;PMS_P2;Temp;Humidity;BMP_temperature;BMP_pressure;BME280_temperature;BME280_humidity;BME280_pressure;Samples;Min_cycle;Max_cycle;Signal;HPM_P1;HPM_P2
2022/10/24 00:00:07;;;;;;;;;;;19.10;99.90;;;;;;5100492;28;19908;-10
2022/10/24 00:02:38;;;;;;;;;;;19.10;99.90;;;;;;5099656;28;19908;-10
2022/10/24 00:05:27;;;;;;;;;;;19.10;99.90;;;;;;5099123;28;20002;-10
2022/10/24 00:07:55;;;;;;;;;;;19.10;99.90;;;;;;5052665;28;20002;-9
2022/10/24 00:10:21;;;;;;;;;;;19.10;99.90;;;;;;5099254;28;19926;-10
2022/10/24 00:12:47;;;;;;;;;;;19.10;99.90;;;;;;5098843;28;19916;-10
2022/10/24 00:15:13;;;;;;;;;;;19.10;99.90;;;;;;5099443;28;19919;-10
2022/10/24 00:17:38;;;;;;;;;;;19.10;99.90;;;;;;5100132;28;19912;-11
2022/10/24 00:20:04;;;;;;;;;;;19.10;99.90;;;;;;5100277;28;20250;-10
2022/10/24 00:22:30;;;;;;;;;;;19.10;99.90;;;;;;5099973;28;19915;-10
2022/10/24 00:24:56;;;;;;;;;;;19.10;99.90;;;;;;5099083;28;19908;-10
2022/10/24 00:27:21;;;;;;;;;;;19.10;99.90;;;;;;5098656;28;19978;-10
2022/10/24 00:29:47;;;;;;;;;;;19.10;99.90;;;;;;5100360;28;19908;-10
2022/10/24 00:32:13;;;;;;;;;;;19.10;99.90;;;;;;5100317;28;19960;-10
2022/10/24 00:34:39;;;;;;;;;;;19.10;99.90;;;;;;5099194;28;19973;-9
2022/10/24 00:37:04;;;;;;;;;;;19.10;99.90;;;;;;5099761;28;19908;-10
2022/10/24 00:39:30;;;;;;;;;;;19.10;99.90;;;;;;5099552;28;19912;-10
2022/10/24 00:41:57;;;;;;;;;;;19.10;99.90;;;;;;5099475;28;19908;-10
2022/10/24 00:44:35;;;;;;;;;;;19.10;99.90;;;;;;5098445;28;19908;-11
2022/10/24 00:47:03;;;;;;;;;;;19.10;99.90;;;;;;5098471;28;19998;-11
2022/10/24 00:49:49;;;;;;;;;;;19.10;99.90;;;;;;5099162;28;20006;-11
2022/10/24 00:52:16;;;;;;;;;;;19.10;99.90;;;;;;5080208;28;20273;-10
2022/10/24 00:54:42;;;;;;;;;;;19.10;99.90;;;;;;5098197;28;19914;-10
2022/10/24 00:57:11;;;;;;;;;;;19.10;99.90;;;;;;5098033;28;20209;-11
2022/10/24 00:59:37;;;;;;;;;;;19.10;99.90;;;;;;5098387;28;19919;-11
2022/10/24 01:02:03;;;;;;;;;;;19.10;99.90;;;;;;5097032;28;19908;-10
2022/10/24 01:04:28;;;;;;;;;;;19.10;99.90;;;;;;5098484;28;19970;-10
2022/10/24 01:07:06;;;;;;;;;;;19.10;99.90;;;;;;5098250;28;19912;-11
2022/10/24 01:09:31;;;;;;;;;;;19.10;99.90;;;;;;5097841;28;20423;-10
2022/10/24 01:12:23;;;;;;;;;;;19.10;99.90;;;;;;5099047;28;19912;-9
2022/10/24 01:14:57;;;;;;;;;;;19.10;99.90;;;;;;5001214;28;19975;-10
2022/10/24 01:17:33;;;;;;;;;;;19.10;99.90;;;;;;5098929;28;19962;-9
2022/10/24 01:20:01;;;;;;;;;;;19.10;99.90;;;;;;5098843;28;19916;-10
2022/10/24 01:22:37;;;;;;;;;;;19.10;99.90;;;;;;5098530;28;20159;-11
2022/10/24 01:25:11;;;;;;;;;;;19.10;99.90;;;;;;5098586;28;19915;-9
2022/10/24 01:27:46;;;;;;;;;;;19.10;99.90;;;;;;5098227;28;20293;-11
2022/10/24 01:30:14;;;;;;;;;;;19.10;99.90;;;;;;5098306;28;19908;-10
2022/10/24 01:32:40;;;;;;;;;;;19.10;99.90;;;;;;5098082;28;19994;-9
2022/10/24 01:35:24;;;;;;;;;;;19.10;99.90;;;;;;5098138;28;19947;-10
2022/10/24 01:37:50;;;;;;;;;;;19.10;99.90;;;;;;5098802;28;20476;-10
2022/10/24 01:40:22;;;;;;;;;;;19.10;99.90;;;;;;5098041;28;19908;-11
2022/10/24 01:42:50;;;;;;;;;;;19.10;99.90;;;;;;5098985;28;20269;-10
2022/10/24 01:45:18;;;;;;;;;;;19.10;99.90;;;;;;5098976;28;20277;-10
2022/10/24 01:47:53;;;;;;;;;;;19.00;99.90;;;;;;5098172;28;19923;-10
2022/10/24 01:50:20;;;;;;;;;;;19.00;99.90;;;;;;5098895;28;19968;-10
2022/10/24 01:52:46;;;;;;;;;;;19.00;99.90;;;;;;5098017;28;19919;-10
2022/10/24 01:55:12;;;;;;;;;;;19.00;99.90;;;;;;5096970;28;19908;-10
2022/10/24 01:57:45;;;;;;;;;;;19.00;99.90;;;;;;5097049;28;19908;-10
2022/10/24 02:00:16;;;;;;;;;;;19.00;99.90;;;;;;5097311;28;19957;-10
2022/10/24 02:02:44;;;;;;;;;;;19.00;99.90;;;;;;5097576;28;20331;-10
2022/10/24 02:05:13;;;;;;;;;;;19.00;99.90;;;;;;5096557;28;19908;-12
2022/10/24 02:07:46;;;;;;;;;;;19.00;99.90;;;;;;5097337;28;19912;-11
2022/10/24 02:10:21;;;;;;;;;;;19.00;99.90;;;;;;5096282;28;19916;-10
2022/10/24 02:13:22;;;;;;;;;;;19.00;99.90;;;;;;5094743;28;20313;-11
2022/10/24 02:15:50;;;;;;;;;;;19.00;99.90;;;;;;5098295;28;19912;-10
2022/10/24 02:18:17;;;;;;;;;;;19.00;99.90;;;;;;5098271;28;19919;-11
2022/10/24 02:20:51;;;;;;;;;;;19.00;99.90;;;;;;5098259;28;20365;-10
2022/10/24 02:23:26;;;;;;;;;;;19.00;99.90;;;;;;5097554;28;19915;-10
2022/10/24 02:25:52;;;;;;;;;;;19.00;99.90;;;;;;5097980;28;19939;-10
2022/10/24 02:28:20;;;;;;;;;;;19.00;99.90;;;;;;5098368;28;19912;-10
2022/10/24 02:30:49;;;;;;;;;;;19.00;99.90;;;;;;5097851;28;19908;-11
2022/10/24 02:33:16;;;;;;;;;;;19.00;99.90;;;;;;5096335;28;20331;-12
2022/10/24 02:35:43;;;;;;;;;;;19.00;99.90;;;;;;5097469;28;19916;-11
2022/10/24 02:38:21;;;;;;;;;;;19.00;99.90;;;;;;5097607;28;19908;-10
2022/10/24 02:41:01;;;;;;;;;;;19.00;99.90;;;;;;5096460;28;19916;-9
2022/10/24 02:43:29;;;;;;;;;;;19.00;99.90;;;;;;5097456;28;19916;-10
2022/10/24 02:45:55;;;;;;;;;;;19.00;99.90;;;;;;5096822;28;20282;-9
2022/10/24 02:48:22;;;;;;;;;;;19.00;99.90;;;;;;5097228;28;19912;-10
2022/10/24 02:50:48;;;;;;;;;;;19.00;99.90;;;;;;5097615;28;19908;-10
2022/10/24 02:53:18;;;;;;;;;;;19.00;99.90;;;;;;5097206;28;19916;-10
2022/10/24 02:55:43;;;;;;;;;;;19.00;99.90;;;;;;5096990;28;20259;-11
2022/10/24 02:58:09;;;;;;;;;;;19.00;99.90;;;;;;5097590;28;20003;-10
2022/10/24 03:00:34;;;;;;;;;;;19.00;99.90;;;;;;5096677;28;19940;-10
2022/10/24 03:03:02;;;;;;;;;;;19.00;99.90;;;;;;5096308;28;20201;-10
2022/10/24 03:05:28;;;;;;;;;;;18.90;99.90;;;;;;5097269;28;19916;-8
2022/10/24 03:07:53;;;;;;;;;;;18.90;99.90;;;;;;5096365;28;19912;-11
2022/10/24 03:10:21;;;;;;;;;;;18.90;99.90;;;;;;5096252;28;19970;-11
2022/10/24 03:12:47;;;;;;;;;;;18.90;99.90;;;;;;5097805;28;19912;-8
2022/10/24 03:15:12;;;;;;;;;;;18.90;99.90;;;;;;5101440;28;19908;-13
2022/10/24 03:17:38;;;;;;;;;;;18.90;99.90;;;;;;5101646;28;19908;-11
2022/10/24 03:20:04;;;;;;;;;;;18.90;99.90;;;;;;5100555;28;20033;-8
2022/10/24 03:22:30;;;;;;;;;;;18.90;99.90;;;;;;5100323;28;20182;-10
2022/10/24 03:24:55;;;;;;;;;;;18.90;99.90;;;;;;5100313;28;20273;-11
2022/10/24 03:27:21;;;;;;;;;;;18.90;99.90;;;;;;5100229;28;19920;-11
2022/10/24 03:29:49;;;;;;;;;;;18.90;99.90;;;;;;5099534;28;20008;-10
2022/10/24 03:32:15;;;;;;;;;;;18.90;99.90;;;;;;5100743;28;19915;-11
2022/10/24 03:34:40;;;;;;;;;;;18.90;99.90;;;;;;5100894;28;19912;-11
2022/10/24 03:37:06;;;;;;;;;;;18.90;99.90;;;;;;5099742;28;19908;-9
2022/10/24 03:39:32;;;;;;;;;;;18.90;99.90;;;;;;5099893;28;19908;-11
2022/10/24 03:41:58;;;;;;;;;;;18.90;99.90;;;;;;5099735;28;19915;-12
2022/10/24 03:44:23;;;;;;;;;;;18.90;99.90;;;;;;5100244;28;19908;-11
2022/10/24 03:46:49;;;;;;;;;;;18.90;99.90;;;;;;5100134;28;19912;-10
2022/10/24 03:49:20;;;;;;;;;;;18.90;99.90;;;;;;5099920;28;19917;-11
2022/10/24 03:51:45;;;;;;;;;;;19.00;99.90;;;;;;5099615;28;19948;-10
2022/10/24 03:54:14;;;;;;;;;;;18.90;99.90;;;;;;5100169;28;19948;-11
2022/10/24 03:56:40;;;;;;;;;;;18.90;99.90;;;;;;5099600;28;20198;-10
2022/10/24 03:59:06;;;;;;;;;;;18.90;99.90;;;;;;5099802;28;19912;-11
2022/10/24 04:01:31;;;;;;;;;;;18.90;99.90;;;;;;5099957;28;20212;-11
2022/10/24 04:03:57;;;;;;;;;;;18.90;99.90;;;;;;5098315;28;19978;-11
2022/10/24 04:06:22;;;;;;;;;;;18.90;99.90;;;;;;5099277;28;19931;-10
2022/10/24 04:08:48;;;;;;;;;;;18.90;99.90;;;;;;5099420;28;20281;-11
2022/10/24 04:11:19;;;;;;;;;;;18.90;99.90;;;;;;5098895;28;19923;-12
2022/10/24 04:13:45;;;;;;;;;;;18.90;99.90;;;;;;5098937;28;19919;-9
2022/10/24 04:16:10;;;;;;;;;;;18.90;99.90;;;;;;5098868;28;19912;-11
2022/10/24 04:18:36;;;;;;;;;;;18.90;99.90;;;;;;5098440;28;19915;-11
2022/10/24 04:21:02;;;;;;;;;;;18.90;99.90;;;;;;5098380;28;19908;-11
2022/10/24 04:23:33;;;;;;;;;;;18.90;99.90;;;;;;5099481;28;19908;-11
2022/10/24 04:25:58;;;;;;;;;;;18.90;99.90;;;;;;5097216;28;19908;-10
2022/10/24 04:28:25;;;;;;;;;;;18.90;99.90;;;;;;5097407;28;19936;-12
2022/10/24 04:30:55;;;;;;;;;;;18.90;99.90;;;;;;5097377;28;19969;-12
2022/10/24 04:33:21;;;;;;;;;;;18.90;99.90;;;;;;5097597;28;19912;-10
2022/10/24 04:35:47;;;;;;;;;;;18.90;99.90;;;;;;5097444;28;19908;-10
2022/10/24 04:38:12;;;;;;;;;;;18.90;99.90;;;;;;5097732;28;19930;-12
2022/10/24 04:40:38;;;;;;;;;;;18.90;99.90;;;;;;5097628;28;20002;-10
2022/10/24 04:43:10;;;;;;;;;;;18.90;99.90;;;;;;5096645;28;19914;-10
2022/10/24 04:45:35;;;;;;;;;;;18.90;99.90;;;;;;5097798;28;19908;-9
2022/10/24 04:48:01;;;;;;;;;;;18.80;99.90;;;;;;5098060;28;19913;-10
2022/10/24 04:50:28;;;;;;;;;;;18.80;99.90;;;;;;5080041;28;20601;-12
2022/10/24 04:52:56;;;;;;;;;;;18.80;99.90;;;;;;5096468;28;19908;-9
2022/10/24 04:55:22;;;;;;;;;;;18.80;99.90;;;;;;5098239;28;20336;-11
2022/10/24 04:57:47;;;;;;;;;;;18.80;99.90;;;;;;5096053;28;20412;-10
2022/10/24 05:00:13;;;;;;;;;;;18.80;99.90;;;;;;5097731;28;19908;-10
2022/10/24 05:02:38;;;;;;;;;;;18.80;99.90;;;;;;5096720;28;19915;-10
2022/10/24 05:05:05;;;;;;;;;;;18.80;99.90;;;;;;5097352;28;19908;-10
2022/10/24 05:07:30;;;;;;;;;;;18.80;99.90;;;;;;5097534;28;19916;-11
2022/10/24 05:09:56;;;;;;;;;;;18.80;99.90;;;;;;5096193;28;20190;-11
2022/10/24 05:12:21;;;;;;;;;;;18.80;99.90;;;;;;5096653;28;19914;-10
2022/10/24 05:14:47;;;;;;;;;;;18.80;99.90;;;;;;5096903;28;19975;-9
2022/10/24 05:17:13;;;;;;;;;;;18.80;99.90;;;;;;5095774;28;19951;-12
2022/10/24 05:19:39;;;;;;;;;;;18.80;99.90;;;;;;5095897;28;20416;-11
2022/10/24 05:22:04;;;;;;;;;;;18.80;99.90;;;;;;5095065;28;19919;-11
2022/10/24 05:24:30;;;;;;;;;;;18.80;99.90;;;;;;5094909;28;20003;-12
2022/10/24 05:26:58;;;;;;;;;;;18.80;99.90;;;;;;5094686;28;19922;-11
2022/10/24 05:29:24;;;;;;;;;;;18.80;99.90;;;;;;5094289;28;19965;-13
2022/10/24 05:31:50;;;;;;;;;;;18.80;99.90;;;;;;5094252;28;20289;-11
2022/10/24 05:34:15;;;;;;;;;;;18.80;99.90;;;;;;5094807;28;19911;-11
2022/10/24 05:36:43;;;;;;;;;;;18.80;99.90;;;;;;5091609;28;20014;-12
2022/10/24 05:39:09;;;;;;;;;;;18.80;99.90;;;;;;5094169;28;20041;-10
2022/10/24 05:41:34;;;;;;;;;;;18.80;99.90;;;;;;5092888;28;20048;-12
2022/10/24 05:44:00;;;;;;;;;;;18.80;99.90;;;;;;5093362;28;19908;-12
2022/10/24 05:46:25;;;;;;;;;;;18.80;99.90;;;;;;5092456;28;20051;-13
2022/10/24 05:48:51;;;;;;;;;;;18.80;99.90;;;;;;5094791;28;19912;-12
2022/10/24 05:51:17;;;;;;;;;;;18.80;99.90;;;;;;5092739;28;19920;-9
2022/10/24 05:53:42;;;;;;;;;;;18.80;99.90;;;;;;5093699;28;19912;-10
2022/10/24 05:56:08;;;;;;;;;;;18.80;99.90;;;;;;5094230;28;19908;-12
2022/10/24 05:58:38;;;;;;;;;;;18.80;99.90;;;;;;5093103;28;20002;-11
2022/10/24 06:01:04;;;;;;;;;;;18.80;99.90;;;;;;5092974;28;19908;-11
2022/10/24 06:03:29;;;;;;;;;;;18.80;99.90;;;;;;5093938;28;19918;-12
2022/10/24 06:05:55;;;;;;;;;;;18.80;99.90;;;;;;5094124;28;20251;-10
2022/10/24 06:08:21;;;;;;;;;;;18.80;99.90;;;;;;5094075;28;19916;-11
2022/10/24 06:10:47;;;;;;;;;;;18.80;99.90;;;;;;5094621;28;19938;-11
2022/10/24 06:13:13;;;;;;;;;;;18.80;99.90;;;;;;5094359;28;19916;-11
2022/10/24 06:15:40;;;;;;;;;;;18.80;99.90;;;;;;5094660;28;19908;-13
2022/10/24 06:18:13;;;;;;;;;;;18.80;99.90;;;;;;5092761;28;19908;-12
2022/10/24 06:20:38;;;;;;;;;;;18.80;99.90;;;;;;5093716;28;19904;-11
2022/10/24 06:23:04;;;;;;;;;;;18.80;99.90;;;;;;5091834;28;19919;-11
2022/10/24 06:25:29;;;;;;;;;;;18.80;99.90;;;;;;5093556;28;19908;-13
2022/10/24 06:28:02;;;;;;;;;;;18.80;99.90;;;;;;5093167;28;19919;-12
2022/10/24 06:30:27;;;;;;;;;;;18.80;99.90;;;;;;5092357;28;19951;-12
2022/10/24 06:32:53;;;;;;;;;;;18.80;99.90;;;;;;5093268;28;19944;-10
2022/10/24 06:35:18;;;;;;;;;;;18.90;99.90;;;;;;5091803;28;20002;-10
2022/10/24 06:37:45;;;;;;;;;;;18.90;99.90;;;;;;5092318;28;19908;-11
2022/10/24 06:40:11;;;;;;;;;;;18.90;99.90;;;;;;5093157;28;20397;-10
2022/10/24 06:42:36;;;;;;;;;;;19.00;99.90;;;;;;5094041;28;19914;-11
2022/10/24 06:45:02;;;;;;;;;;;19.00;99.90;;;;;;5092918;28;19912;-12
2022/10/24 06:47:30;;;;;;;;;;;19.00;99.90;;;;;;5092593;28;19919;-9
2022/10/24 06:49:56;;;;;;;;;;;19.10;99.90;;;;;;5095348;28;19908;-10
2022/10/24 06:52:22;;;;;;;;;;;19.10;99.90;;;;;;5097883;28;19915;-9
2022/10/24 06:54:48;;;;;;;;;;;19.10;99.90;;;;;;5095856;28;19908;-11
2022/10/24 06:57:14;;;;;;;;;;;19.20;99.90;;;;;;5097342;28;19908;-9
2022/10/24 06:59:39;;;;;;;;;;;19.20;99.90;;;;;;5098665;28;19908;-11
2022/10/24 07:02:05;;;;;;;;;;;19.20;99.90;;;;;;5097989;28;19966;-10
2022/10/24 07:04:30;;;;;;;;;;;19.20;99.90;;;;;;5097149;28;19908;-10
2022/10/24 07:06:56;;;;;;;;;;;19.20;99.90;;;;;;5096906;28;19939;-11
2022/10/24 07:09:21;;;;;;;;;;;19.30;99.90;;;;;;5096171;28;19942;-11
2022/10/24 07:11:47;;;;;;;;;;;19.40;99.90;;;;;;5095789;28;19916;-11
2022/10/24 07:14:13;;;;;;;;;;;19.40;99.90;;;;;;5095766;28;19973;-9
2022/10/24 07:16:39;;;;;;;;;;;19.50;99.90;;;;;;5095983;28;19966;-10
2022/10/24 07:19:05;;;;;;;;;;;19.70;99.90;;;;;;5078167;28;19908;-11
2022/10/24 07:21:31;;;;;;;;;;;19.80;99.90;;;;;;5097531;28;20311;-11
2022/10/24 07:23:58;;;;;;;;;;;20.20;99.90;;;;;;5096604;28;20316;-11
2022/10/24 07:26:24;;;;;;;;;;;20.50;99.90;;;;;;5097112;28;19969;-12
2022/10/24 07:28:53;;;;;;;;;;;21.10;99.90;;;;;;5096221;28;19908;-10
2022/10/24 07:31:20;;;;;;;;;;;21.80;99.90;;;;;;5094653;28;19955;-11
2022/10/24 07:33:46;;;;;;;;;;;21.90;98.90;;;;;;5095996;28;19908;-9
2022/10/24 07:36:19;;;;;;;;;;;21.80;98.90;;;;;;5095262;28;20225;-11
2022/10/24 07:38:45;;;;;;;;;;;22.10;98.50;;;;;;5095173;28;19919;-12
2022/10/24 07:41:10;;;;;;;;;;;22.20;97.80;;;;;;5095650;28;20290;-11
2022/10/24 07:43:37;;;;;;;;;;;22.40;97.50;;;;;;5097317;28;19908;-11
2022/10/24 07:46:09;;;;;;;;;;;23.00;96.30;;;;;;5097804;28;20504;-9
2022/10/24 07:48:35;;;;;;;;;;;23.80;94.10;;;;;;5097781;28;19942;-11
2022/10/24 07:51:04;;;;;;;;;;;24.60;91.40;;;;;;5096521;28;19916;-10
2022/10/24 07:53:31;;;;;;;;;;;24.50;90.20;;;;;;5095317;28;19915;-10
2022/10/24 07:55:57;;;;;;;;;;;24.50;90.20;;;;;;5097371;28;19916;-12
2022/10/24 07:58:22;;;;;;;;;;;24.70;88.80;;;;;;5096621;28;19943;-11
2022/10/24 08:00:48;;;;;;;;;;;24.90;86.90;;;;;;5096289;28;19951;-12
2022/10/24 08:03:14;;;;;;;;;;;25.10;85.00;;;;;;5096984;28;19908;-9
2022/10/24 08:05:39;;;;;;;;;;;24.90;84.90;;;;;;5096369;28;20335;-11
2022/10/24 08:08:05;;;;;;;;;;;24.40;86.70;;;;;;5095691;28;19939;-13
2022/10/24 08:10:31;;;;;;;;;;;24.10;89.40;;;;;;5095104;28;19993;-11
2022/10/24 08:12:57;;;;;;;;;;;23.50;91.10;;;;;;5095059;28;19908;-11
2022/10/24 08:15:24;;;;;;;;;;;23.40;92.00;;;;;;5095414;28;19916;-10
2022/10/24 08:17:50;;;;;;;;;;;23.40;92.10;;;;;;5095457;28;19955;-11
2022/10/24 08:20:16;;;;;;;;;;;24.10;91.30;;;;;;5096190;28;19970;-13
2022/10/24 08:22:41;;;;;;;;;;;24.70;87.70;;;;;;5096036;28;19977;-10
2022/10/24 08:25:08;;;;;;;;;;;24.80;86.10;;;;;;5094381;28;20285;-11
2022/10/24 08:27:37;;;;;;;;;;;24.70;85.70;;;;;;5095774;28;19922;-13
2022/10/24 08:30:03;;;;;;;;;;;24.00;88.30;;;;;;5095869;28;20447;-11
2022/10/24 08:32:28;;;;;;;;;;;23.90;90.20;;;;;;5095136;28;19956;-11
2022/10/24 08:34:54;;;;;;;;;;;23.70;90.70;;;;;;5095685;28;19919;-11
2022/10/24 08:37:21;;;;;;;;;;;23.40;91.50;;;;;;5095583;28;19912;-12
2022/10/24 08:39:47;;;;;;;;;;;23.00;92.40;;;;;;5094591;28;19962;-10
2022/10/24 08:42:14;;;;;;;;;;;22.80;93.40;;;;;;5094375;28;19943;-12
2022/10/24 08:44:43;;;;;;;;;;;22.90;93.40;;;;;;5095693;28;19908;-11
2022/10/24 08:47:21;;;;;;;;;;;22.60;93.90;;;;;;5094482;28;19919;-10
2022/10/24 08:50:26;;;;;;;;;;;22.30;94.70;;;;;;5095610;28;20201;-11
2022/10/24 08:53:13;;;;;;;;;;;22.00;95.60;;;;;;5012211;28;20084;-12
2022/10/24 08:55:53;;;;;;;;;;;21.70;96.60;;;;;;4995721;28;19910;-11
2022/10/24 08:58:22;;;;;;;;;;;21.50;97.40;;;;;;5064094;28;19908;-11
2022/10/24 09:00:49;;;;;;;;;;;21.30;98.10;;;;;;5094679;28;19920;-12
2022/10/24 09:03:26;;;;;;;;;;;21.10;98.60;;;;;;5094848;28;19908;-10
2022/10/24 09:05:53;;;;;;;;;;;21.00;99.00;;;;;;5094257;28;19912;-11
2022/10/24 09:08:29;;;;;;;;;;;20.90;99.40;;;;;;5094887;28;19923;-10
2022/10/24 09:10:59;;;;;;;;;;;20.80;99.70;;;;;;5094635;28;19916;-11
2022/10/24 09:13:26;;;;;;;;;;;20.70;99.90;;;;;;5095716;28;19915;-10
2022/10/24 09:15:52;;;;;;;;;;;20.70;99.90;;;;;;5094975;28;20107;-11
2022/10/24 09:18:21;;;;;;;;;;;20.70;99.90;;;;;;5094091;28;19915;-9
2022/10/24 09:20:47;;;;;;;;;;;20.60;99.90;;;;;;5094094;28;19915;-11
2022/10/24 09:23:14;;;;;;;;;;;20.60;99.90;;;;;;5094672;28;19908;-11
2022/10/24 09:25:41;;;;;;;;;;;20.50;99.90;;;;;;5094321;28;19912;-11
2022/10/24 09:28:07;;;;;;;;;;;20.50;99.90;;;;;;5094714;28;19935;-11
2022/10/24 09:30:35;;;;;;;;;;;20.40;99.90;;;;;;5095879;28;20166;-9
2022/10/24 09:33:16;;;;;;;;;;;20.40;99.90;;;;;;5093544;28;19916;-12
2022/10/24 09:35:42;;;;;;;;;;;20.30;99.90;;;;;;5095066;28;19927;-10
2022/10/24 09:38:37;;;;;;;;;;;20.30;99.90;;;;;;5094167;28;20167;-11
2022/10/24 09:41:03;;;;;;;;;;;20.30;99.90;;;;;;5076471;28;19908;-11
2022/10/24 09:43:29;;;;;;;;;;;20.40;99.90;;;;;;5093441;28;19908;-11
2022/10/24 09:46:00;;;;;;;;;;;20.30;99.90;;;;;;5092274;28;19915;-11
2022/10/24 09:48:26;;;;;;;;;;;20.30;99.90;;;;;;5093459;28;20289;-11
2022/10/24 09:50:53;;;;;;;;;;;20.20;99.90;;;;;;5091764;28;19908;-12
2022/10/24 09:53:22;;;;;;;;;;;20.20;99.90;;;;;;5093510;28;19915;-11
2022/10/24 09:55:49;;;;;;;;;;;20.20;99.90;;;;;;5092524;28;20441;-11
2022/10/24 09:58:19;;;;;;;;;;;20.20;99.90;;;;;;5093550;28;20019;-10
2022/10/24 10:00:55;;;;;;;;;;;20.10;99.90;;;;;;5094572;28;19919;-11
2022/10/24 10:03:21;;;;;;;;;;;20.10;99.90;;;;;;5092494;28;19909;-11
2022/10/24 10:05:48;;;;;;;;;;;20.10;99.90;;;;;;5094387;28;19908;-11
2022/10/24 10:08:23;;;;;;;;;;;20.10;99.90;;;;;;5094010;28;19911;-11
2022/10/24 10:10:54;;;;;;;;;;;20.00;99.90;;;;;;5093005;28;19916;-10
2022/10/24 10:13:23;;;;;;;;;;;20.00;99.90;;;;;;5091850;28;20294;-14
2022/10/24 10:15:55;;;;;;;;;;;20.00;99.90;;;;;;5091896;28;19908;-13
2022/10/24 10:18:41;;;;;;;;;;;20.10;99.90;;;;;;5093491;28;19950;-12
2022/10/24 10:21:12;;;;;;;;;;;20.20;99.90;;;;;;5093630;28;19908;-12
2022/10/24 10:23:40;;;;;;;;;;;20.30;99.90;;;;;;5092306;28;19970;-12
2022/10/24 10:26:05;;;;;;;;;;;20.30;99.90;;;;;;5092514;28;19919;-10
2022/10/24 10:28:35;;;;;;;;;;;20.40;99.90;;;;;;5093027;28;20193;-10
2022/10/24 10:31:01;;;;;;;;;;;20.40;99.90;;;;;;5092368;28;20011;-13
2022/10/24 10:33:42;;;;;;;;;;;20.30;99.90;;;;;;5092315;28;20003;-12
2022/10/24 10:36:31;;;;;;;;;;;20.30;99.90;;;;;;5092946;28;20448;-11
2022/10/24 10:39:12;;;;;;;;;;;20.30;99.90;;;;;;5092880;28;19919;-9
2022/10/24 10:41:46;;;;;;;;;;;20.30;99.90;;;;;;5092487;28;20134;-10
2022/10/24 10:44:15;;;;;;;;;;;20.30;99.90;;;;;;5092550;28;19955;-12
2022/10/24 10:46:52;;;;;;;;;;;20.30;99.90;;;;;;5092935;28;19942;-13
2022/10/24 10:49:20;;;;;;;;;;;20.30;99.90;;;;;;5093377;28;20270;-11
2022/10/24 10:51:47;;;;;;;;;;;20.30;99.90;;;;;;5094291;28;19992;-11
2022/10/24 10:54:25;;;;;;;;;;;20.30;99.90;;;;;;5093809;28;20354;-11
2022/10/24 10:56:53;;;;;;;;;;;20.30;99.90;;;;;;5093877;28;19908;-12
2022/10/24 10:59:35;;;;;;;;;;;20.30;99.90;;;;;;5094432;28;20010;-10
2022/10/24 11:02:16;;;;;;;;;;;20.30;99.90;;;;;;5092249;28;19919;-10
2022/10/24 11:04:46;;;;;;;;;;;20.20;99.90;;;;;;5092616;28;19908;-12
2022/10/24 11:07:17;;;;;;;;;;;20.20;99.90;;;;;;5092504;28;19923;-11
2022/10/24 11:09:48;;;;;;;;;;;20.20;99.90;;;;;;5092527;28;20076;-11
2022/10/24 11:12:19;;;;;;;;;;;20.20;99.90;;;;;;5090529;28;19930;-10
2022/10/24 11:14:59;;;;;;;;;;;20.10;99.90;;;;;;5091345;28;19924;-11
2022/10/24 11:17:36;;;;;;;;;;;20.10;99.90;;;;;;5093131;28;19957;-11
2022/10/24 11:20:06;;;;;;;;;;;20.10;99.90;;;;;;5091997;28;19912;-11
2022/10/24 11:22:39;;;;;;;;;;;20.20;99.90;;;;;;5091056;28;19916;-11
2022/10/24 11:25:08;;;;;;;;;;;20.20;99.90;;;;;;5092014;28;19942;-12
2022/10/24 11:27:37;;;;;;;;;;;20.20;99.90;;;;;;5091994;28;19956;-12
2022/10/24 11:30:14;;;;;;;;;;;20.20;99.90;;;;;;5091830;28;19964;-9
2022/10/24 11:32:46;;;;;;;;;;;20.20;99.90;;;;;;5093163;28;20128;-10
2022/10/24 11:35:24;;;;;;;;;;;20.10;99.90;;;;;;5093992;28;19922;-11
2022/10/24 11:37:53;;;;;;;;;;;20.10;99.90;;;;;;5096433;28;19908;-9
2022/10/24 11:40:20;;;;;;;;;;;20.10;99.90;;;;;;5096419;28;20003;-12
2022/10/24 11:43:00;;;;;;;;;;;20.10;99.90;;;;;;5097023;28;20323;-10
2022/10/24 11:45:30;;;;;;;;;;;20.10;99.90;;;;;;5095476;28;19919;-10
2022/10/24 11:47:56;;;;;;;;;;;20.10;99.90;;;;;;5094918;28;20243;-12
2022/10/24 11:50:27;;;;;;;;;;;20.10;99.90;;;;;;5096200;28;20442;-8
2022/10/24 11:52:55;;;;;;;;;;;20.10;99.90;;;;;;5095556;28;20178;-9
2022/10/24 11:55:42;;;;;;;;;;;20.00;99.90;;;;;;5094795;28;19995;-10
2022/10/24 11:58:11;;;;;;;;;;;20.00;99.90;;;;;;5094755;28;20258;-10
2022/10/24 12:01:01;;;;;;;;;;;20.00;99.90;;;;;;5095331;28;20274;-9
2022/10/24 12:03:45;;;;;;;;;;;20.00;99.90;;;;;;5094149;28;19907;-10
2022/10/24 12:06:36;;;;;;;;;;;20.00;99.90;;;;;;5095945;28;19908;-9
2022/10/24 12:09:07;;;;;;;;;;;20.00;99.90;;;;;;5096356;28;19999;-10
2022/10/24 12:11:36;;;;;;;;;;;20.00;99.90;;;;;;5095285;28;19939;-10
2022/10/24 12:14:17;;;;;;;;;;;19.90;99.90;;;;;;5094821;28;19908;-10
2022/10/24 12:16:51;;;;;;;;;;;19.90;99.90;;;;;;5094966;28;19952;-11
2022/10/24 12:19:18;;;;;;;;;;;19.90;99.90;;;;;;5093476;28;19908;-10
2022/10/24 12:21:50;;;;;;;;;;;19.90;99.90;;;;;;5093125;28;19912;-10
2022/10/24 12:24:20;;;;;;;;;;;19.90;99.90;;;;;;5093870;28;19908;-12
2022/10/24 12:26:53;;;;;;;;;;;20.00;99.90;;;;;;5095973;28;19916;-10
2022/10/24 12:29:23;;;;;;;;;;;19.90;99.90;;;;;;5095678;28;19959;-10
2022/10/24 12:31:49;;;;;;;;;;;19.90;99.90;;;;;;5078034;28;19908;-12
2022/10/24 12:34:14;;;;;;;;;;;19.90;99.90;;;;;;5095509;28;19916;-10
2022/10/24 12:36:58;;;;;;;;;;;19.90;99.90;;;;;;5095909;28;19908;-10
2022/10/24 12:39:34;;;;;;;;;;;19.90;99.90;;;;;;5094610;28;19908;-11
2022/10/24 12:42:00;;;;;;;;;;;19.90;99.90;;;;;;5095505;28;20177;-9
2022/10/24 12:44:32;;;;;;;;;;;19.90;99.90;;;;;;5096450;28;20307;-10
2022/10/24 12:46:57;;;;;;;;;;;19.90;99.90;;;;;;5094397;28;20338;-12
2022/10/24 12:49:27;;;;;;;;;;;19.90;99.90;;;;;;5095538;28;19943;-10
2022/10/24 12:51:55;;;;;;;;;;;19.90;99.90;;;;;;5094864;28;19912;-11
2022/10/24 12:54:43;;;;;;;;;;;20.00;99.90;;;;;;5094631;28;19908;-10
2022/10/24 12:57:11;;;;;;;;;;;20.00;99.90;;;;;;5093724;28;19961;-10
2022/10/24 12:59:46;;;;;;;;;;;20.10;99.90;;;;;;5094057;28;19951;-12
2022/10/24 13:02:11;;;;;;;;;;;20.10;99.90;;;;;;5093704;28;20347;-11
2022/10/24 13:04:37;;;;;;;;;;;20.10;99.90;;;;;;5094055;28;19945;-11
2022/10/24 13:07:22;;;;;;;;;;;20.20;99.90;;;;;;5093593;28;20003;-10
2022/10/24 13:09:59;;;;;;;;;;;20.20;99.90;;;;;;5092609;28;20282;-11
2022/10/24 13:12:44;;;;;;;;;;;20.20;99.90;;;;;;5088216;28;19935;-10
2022/10/24 13:15:12;;;;;;;;;;;20.20;99.90;;;;;;5093099;28;19908;-10
2022/10/24 13:17:49;;;;;;;;;;;20.20;99.90;;;;;;5093613;28;19934;-10
2022/10/24 13:20:21;;;;;;;;;;;20.20;99.90;;;;;;5096054;28;19908;-9
2022/10/24 13:22:49;;;;;;;;;;;20.20;99.90;;;;;;5095203;28;20396;-10
2022/10/24 13:25:38;;;;;;;;;;;20.20;99.90;;;;;;5093772;28;20290;-10
2022/10/24 13:28:23;;;;;;;;;;;20.30;99.90;;;;;;5083864;28;19912;-11
2022/10/24 13:30:52;;;;;;;;;;;20.30;99.90;;;;;;5094742;28;19957;-10
2022/10/24 13:33:37;;;;;;;;;;;20.30;99.90;;;;;;5093629;28;19938;-10
2022/10/24 13:36:16;;;;;;;;;;;20.20;99.90;;;;;;5077488;28;20217;-11
2022/10/24 13:38:53;;;;;;;;;;;20.20;99.90;;;;;;5094460;28;19908;-10
2022/10/24 13:41:30;;;;;;;;;;;20.20;99.90;;;;;;5095093;28;19908;-12
2022/10/24 13:44:20;;;;;;;;;;;20.20;99.90;;;;;;5094413;28;19916;-10
2022/10/24 13:47:06;;;;;;;;;;;20.20;99.90;;;;;;5047467;28;19977;-13
2022/10/24 13:49:35;;;;;;;;;;;20.20;99.90;;;;;;5093945;28;19908;-10
2022/10/24 13:52:05;;;;;;;;;;;20.30;99.90;;;;;;5094424;28;19908;-12
2022/10/24 13:54:34;;;;;;;;;;;20.20;99.90;;;;;;5092703;28;20411;-12
2022/10/24 13:57:00;;;;;;;;;;;20.20;99.90;;;;;;5094145;28;19908;-12
2022/10/24 13:59:33;;;;;;;;;;;20.20;99.90;;;;;;5092735;28;19962;-10
2022/10/24 14:02:19;;;;;;;;;;;20.20;99.90;;;;;;5092459;28;20080;-11
2022/10/24 14:04:45;;;;;;;;;;;20.20;99.90;;;;;;5094176;28;19958;-12
2022/10/24 14:07:16;;;;;;;;;;;20.20;99.90;;;;;;5094037;28;19978;-10
2022/10/24 14:09:42;;;;;;;;;;;20.30;99.90;;;;;;5093694;28;20362;-9
2022/10/24 14:12:18;;;;;;;;;;;20.30;99.90;;;;;;5093576;28;20306;-10
2022/10/24 14:14:46;;;;;;;;;;;20.20;99.90;;;;;;5094180;28;20311;-11
2022/10/24 14:17:17;;;;;;;;;;;20.20;99.90;;;;;;5094947;28;19918;-10
2022/10/24 14:20:08;;;;;;;;;;;20.20;99.90;;;;;;5095060;28;20197;-9
2022/10/24 14:22:38;;;;;;;;;;;20.20;99.90;;;;;;5053228;28;19908;-11
2022/10/24 14:25:04;;;;;;;;;;;20.20;99.90;;;;;;5093677;28;19939;-10
2022/10/24 14:27:30;;;;;;;;;;;20.10;99.90;;;;;;5093351;28;19991;-11
2022/10/24 14:29:58;;;;;;;;;;;20.10;99.90;;;;;;5093412;28;20002;-10
2022/10/24 14:32:25;;;;;;;;;;;20.10;99.90;;;;;;5093621;28;20381;-10